Time;durP1;ratioP1;P1;durP2;ratioP2;P2;SDS_P1;SDS_P2;PMS_P1;PMS_P2;Temp;Humidity;BMP_temperature;BMP_pressure;BME280_temperature;BME280_humidity;BME280_pressure;Samples;Min_cycle;Max_cycle;Signal;HPM_P1;HPM_P2
2022/01/19 00:01:34;;;;;;;12.03;5.47;;;;;;;1.03;53.92;98293.28;5058338;28;20204;-80
2022/01/19 00:04:02;;;;;;;9.87;4.00;;;;;;;0.91;54.45;98286.31;5062279;28;20236;-85
2022/01/19 00:06:29;;;;;;;9.93;5.47;;;;;;;0.92;54.29;98302.47;5056759;28;20194;-82
2022/01/19 00:08:57;;;;;;;7.50;4.20;;;;;;;0.94;55.18;98308.47;5049398;28;20728;-80
2022/01/19 00:11:24;;;;;;;8.73;4.43;;;;;;;0.97;55.11;98319.53;5081233;28;20186;-81
2022/01/19 00:13:52;;;;;;;12.33;5.23;;;;;;;0.92;54.83;98318.66;5050097;28;20190;-79
2022/01/19 00:16:23;;;;;;;9.87;5.17;;;;;;;0.93;55.13;98322.88;5071526;28;20662;-81
2022/01/19 00:18:50;;;;;;;8.07;3.60;;;;;;;0.97;54.36;98328.91;5068476;28;20193;-81
2022/01/19 00:21:17;;;;;;;12.07;5.43;;;;;;;0.81;55.14;98305.75;5051289;28;20604;-81
2022/01/19 00:23:44;;;;;;;8.07;4.23;;;;;;;0.83;54.53;98305.78;5049392;28;20267;-85
2022/01/19 00:26:13;;;;;;;11.07;5.07;;;;;;;0.84;54.72;98308.34;5048428;28;20671;-84
2022/01/19 00:28:40;;;;;;;8.87;4.73;;;;;;;0.77;55.17;98321.00;5049697;28;20243;-86
2022/01/19 00:31:07;;;;;;;5.90;3.50;;;;;;;0.64;54.69;98325.06;5049593;28;20206;-84
2022/01/19 00:33:34;;;;;;;9.37;4.57;;;;;;;0.77;55.80;98339.69;5049421;28;20205;-86
2022/01/19 00:36:01;;;;;;;11.13;5.53;;;;;;;0.68;55.78;98316.63;5049535;28;20209;-88
2022/01/19 00:38:28;;;;;;;11.13;6.53;;;;;;;0.80;54.78;98326.97;5031109;28;20231;-80
2022/01/19 00:40:57;;;;;;;11.47;5.43;;;;;;;0.79;55.33;98329.50;5047357;28;20228;-80
2022/01/19 00:43:24;;;;;;;8.40;5.40;;;;;;;0.65;55.37;98323.38;5048602;28;20285;-80
2022/01/19 00:45:52;;;;;;;6.00;4.13;;;;;;;0.65;55.06;98338.69;5048091;28;20217;-79
2022/01/19 00:48:30;;;;;;;10.47;4.13;;;;;;;0.62;55.70;98351.38;5030011;28;20196;-80
2022/01/19 00:50:57;;;;;;;7.67;4.47;;;;;;;0.67;55.61;98349.75;5047937;28;20200;-80
2022/01/19 00:53:26;;;;;;;7.70;4.47;;;;;;;0.65;55.57;98352.28;5079695;28;20217;-79
2022/01/19 00:55:53;;;;;;;6.33;3.13;;;;;;;0.34;55.69;98304.28;5048811;28;20213;-82
2022/01/19 00:58:20;;;;;;;11.37;4.90;;;;;;;0.60;55.19;98353.03;5050178;28;20205;-88
2022/01/19 01:00:48;;;;;;;7.77;4.80;;;;;;;0.69;55.80;98342.97;5069375;28;20224;-82
2022/01/19 01:03:15;;;;;;;8.60;5.10;;;;;;;0.54;55.73;98319.81;5064951;28;20230;-91
2022/01/19 01:05:44;;;;;;;9.90;5.17;;;;;;;0.51;55.73;98333.41;5059804;28;20260;-94
2022/01/19 01:08:11;;;;;;;7.17;4.47;;;;;;;0.52;55.45;98324.03;5058021;28;20194;-94
2022/01/19 01:10:43;;;;;;;5.97;3.90;;;;;;;0.49;55.35;98326.56;5055166;28;20361;-95
2022/01/19 01:16:05;;;;;;;6.57;3.30;;;;;;;0.40;55.94;98344.25;5050618;28;20569;-91
2022/01/19 01:18:33;;;;;;;6.70;4.00;;;;;;;0.37;56.02;98349.31;5050555;28;20193;-93
2022/01/19 01:21:03;;;;;;;5.80;3.60;;;;;;;0.29;56.76;98340.72;5059035;28;20197;-94
2022/01/19 01:23:32;;;;;;;5.97;3.47;;;;;;;0.29;57.24;98356.81;5071938;28;20278;-94
2022/01/19 01:26:00;;;;;;;5.03;3.37;;;;;;;0.19;56.29;98343.91;5071120;28;20197;-93
2022/01/19 01:28:27;;;;;;;10.20;4.57;;;;;;;0.31;56.66;98352.59;5067819;28;20186;-79
2022/01/19 01:30:55;;;;;;;5.50;3.00;;;;;;;0.26;56.99;98350.84;5066511;28;20196;-80
2022/01/19 01:33:22;;;;;;;5.93;3.23;;;;;;;0.07;56.80;98333.53;5066568;28;20181;-82
2022/01/19 01:35:50;;;;;;;5.90;3.10;;;;;;;0.14;57.02;98351.50;5067489;28;20189;-79
2022/01/19 01:38:21;;;;;;;6.83;3.40;;;;;;;-0.01;57.53;98321.56;5066106;28;20251;-81
2022/01/19 01:41:11;;;;;;;4.53;3.10;;;;;;;0.00;56.80;98314.78;5066313;28;20664;-80
2022/01/19 01:43:41;;;;;;;7.23;3.63;;;;;;;0.07;57.62;98321.69;5065868;28;20208;-80
2022/01/19 01:46:20;;;;;;;9.73;4.40;;;;;;;0.03;57.28;98296.13;5067678;28;20204;-81
2022/01/19 01:48:49;;;;;;;5.33;3.37;;;;;;;0.08;57.57;98299.63;5065847;28;20242;-80
2022/01/19 01:54:06;;;;;;;11.23;3.60;;;;;;;0.11;57.47;98312.38;5067824;28;20238;-83
2022/01/19 01:56:33;;;;;;;5.37;3.13;;;;;;;0.17;56.48;98320.97;5067555;28;20196;-85
2022/01/19 01:59:04;;;;;;;6.73;3.00;;;;;;;0.07;56.42;98306.41;5051328;28;20707;-81
2022/01/19 02:01:33;;;;;;;5.20;3.33;;;;;;;0.07;56.47;98308.94;5069783;28;20192;-82
2022/01/19 02:04:08;;;;;;;8.37;3.27;;;;;;;0.13;56.97;98313.25;5051188;28;20308;-80
2022/01/19 02:06:58;;;;;;;7.83;3.83;;;;;;;0.09;56.43;98291.13;5047088;28;20190;-80
2022/01/19 02:09:29;;;;;;;6.10;3.33;;;;;;;0.24;55.21;98306.66;5046370;28;20216;-81
2022/01/19 02:23:24;;;;;;;3.30;2.50;;;;;;;0.09;55.70;98276.72;5049569;28;20332;-81
2022/01/19 02:25:57;;;;;;;5.83;3.10;;;;;;;-0.09;56.35;98286.63;5049709;28;20225;-81
2022/01/19 02:42:16;;;;;;;5.00;2.40;;;;;;;-0.32;56.97;98285.41;5061713;28;20611;-78
2022/01/19 02:49:53;;;;;;;2.93;2.60;;;;;;;-0.36;56.87;98299.78;5062274;28;20197;-79
2022/01/19 02:52:22;;;;;;;6.80;3.53;;;;;;;-0.44;57.11;98296.25;5066558;28;20277;-86
2022/01/19 02:54:51;;;;;;;6.47;3.53;;;;;;;-0.38;57.49;98309.06;5085923;28;20181;-81
2022/01/19 02:57:24;;;;;;;5.10;2.60;;;;;;;-0.48;56.66;98286.84;5087900;28;20184;-81
2022/01/19 03:10:55;;;;;;;5.53;2.80;;;;;;;-0.45;57.16;98311.44;5075369;28;20189;-79
2022/01/19 03:13:25;;;;;;;6.47;3.40;;;;;;;-0.40;56.85;98317.50;5081877;28;20279;-86
2022/01/19 03:15:52;;;;;;;5.90;3.20;;;;;;;-0.45;56.74;98312.31;5072500;28;20208;-91
2022/01/19 03:18:21;;;;;;;4.90;3.10;;;;;;;-0.46;56.36;98319.94;5073919;28;20198;-90
2022/01/19 03:20:48;;;;;;;5.03;3.20;;;;;;;-0.51;56.46;98326.63;5073821;28;20280;-88
2022/01/19 03:23:20;;;;;;;5.77;2.73;;;;;;;-0.53;56.96;98336.75;5072404;28;20232;-85
2022/01/19 03:25:53;;;;;;;6.23;2.73;;;;;;;-0.58;57.10;98324.81;5071710;28;20723;-88
2022/01/19 03:28:20;;;;;;;5.27;3.10;;;;;;;-0.56;57.57;98329.09;5073984;28;20325;-91
2022/01/19 03:30:48;;;;;;;6.13;3.20;;;;;;;-0.52;57.13;98337.63;5073931;28;20193;-92
2022/01/19 03:33:15;;;;;;;5.07;3.33;;;;;;;-0.70;57.12;98294.91;5072530;28;20192;-90
2022/01/19 03:35:43;;;;;;;6.80;2.93;;;;;;;-0.54;57.57;98332.53;5072320;28;20639;-92
2022/01/19 03:38:12;;;;;;;5.30;3.00;;;;;;;-0.61;58.31;98334.91;5073435;28;20242;-87
2022/01/19 03:40:40;;;;;;;7.80;3.53;;;;;;;-0.71;58.33;98323.72;5054030;28;20561;-81
2022/01/19 03:43:09;;;;;;;6.57;3.50;;;;;;;-0.78;58.12;98326.97;5054153;28;20282;-83
2022/01/19 03:45:52;;;;;;;7.70;3.07;;;;;;;-0.74;58.44;98323.66;5064483;28;20224;-95
2022/01/19 03:50:49;;;;;;;7.87;3.40;;;;;;;-0.66;58.04;98334.81;5053591;28;20556;-93
2022/01/19 03:53:16;;;;;;;5.30;3.00;;;;;;;-0.72;58.40;98342.34;5086044;28;20179;-88
2022/01/19 03:55:43;;;;;;;7.80;3.73;;;;;;;-0.74;58.95;98344.00;5053789;28;20273;-92
2022/01/19 03:58:10;;;;;;;7.20;3.67;;;;;;;-0.87;58.83;98334.44;5053288;28;20189;-87
2022/01/19 04:00:42;;;;;;;10.13;3.23;;;;;;;-0.78;58.51;98346.47;5052165;28;20614;-93
2022/01/19 04:03:12;;;;;;;4.73;3.00;;;;;;;-0.77;59.32;98349.03;5052185;28;20186;-91
2022/01/19 04:05:56;;;;;;;5.43;2.80;;;;;;;-0.90;59.07;98339.44;5051826;28;20239;-93
2022/01/19 04:08:25;;;;;;;7.07;3.63;;;;;;;-0.95;59.38;98333.44;5052306;28;20190;-91
2022/01/19 04:10:53;;;;;;;4.90;3.30;;;;;;;-0.83;59.38;98346.38;5051708;28;20213;-80
2022/01/19 04:13:43;;;;;;;5.90;3.70;;;;;;;-1.00;59.75;98304.50;5047422;28;20757;-80
2022/01/19 04:16:12;;;;;;;6.57;3.10;;;;;;;-0.98;59.73;98308.81;5047678;28;20186;-80
2022/01/19 04:18:39;;;;;;;6.90;3.60;;;;;;;-0.88;59.71;98318.31;5049292;28;20252;-89
2022/01/19 04:21:07;;;;;;;7.87;4.03;;;;;;;-0.90;59.71;98335.22;5058389;28;20184;-82
2022/01/19 04:23:36;;;;;;;6.77;4.00;;;;;;;-0.85;60.32;98345.50;5047410;28;20249;-80
2022/01/19 04:26:03;;;;;;;11.77;4.27;;;;;;;-0.87;60.04;98352.22;5048204;28;20221;-80
2022/01/19 04:28:31;;;;;;;5.77;4.33;;;;;;;-0.87;59.86;98347.16;5047500;28;20193;-79
2022/01/19 04:30:59;;;;;;;9.43;5.03;;;;;;;-0.84;59.95;98342.09;5049521;28;20185;-90
2022/01/19 04:33:27;;;;;;;7.10;3.43;;;;;;;-0.86;58.96;98347.16;5050700;28;20260;-80
2022/01/19 04:36:07;;;;;;;7.63;3.90;;;;;;;-0.82;59.37;98354.88;5049477;28;20188;-90
2022/01/19 04:48:10;;;;;;;4.53;3.00;;;;;;;-0.82;59.58;98373.50;5086238;28;20185;-87
2022/01/19 05:15:12;;;;;;;8.00;3.43;;;;;;;-0.94;59.26;98391.91;5068543;28;20266;-92
2022/01/19 05:17:41;;;;;;;6.90;3.43;;;;;;;-0.87;57.98;98387.81;5069165;28;20189;-87
2022/01/19 05:20:12;;;;;;;7.17;3.40;;;;;;;-0.69;58.51;98402.56;5068633;28;20189;-85
2022/01/19 05:22:39;;;;;;;7.87;4.10;;;;;;;-0.59;58.81;98405.34;5053248;28;20624;-84
2022/01/19 05:25:11;;;;;;;9.97;4.30;;;;;;;-0.60;57.64;98396.00;5077225;28;20687;-82
2022/01/19 05:27:57;;;;;;;5.87;3.90;;;;;;;-0.52;57.47;98409.72;5060245;28;20192;-80
2022/01/19 05:30:25;;;;;;;6.87;3.43;;;;;;;-0.67;57.80;98399.25;5074413;28;20185;-80
2022/01/19 05:32:55;;;;;;;8.47;4.10;;;;;;;-0.65;58.82;98410.31;5072583;28;20272;-81
2022/01/19 05:35:24;;;;;;;17.40;4.93;;;;;;;-0.47;58.06;98425.91;5068023;28;20186;-80
2022/01/19 05:38:05;;;;;;;7.57;3.97;;;;;;;-0.62;58.03;98419.69;5068248;28;20222;-85
2022/01/19 05:40:39;;;;;;;8.73;4.30;;;;;;;-0.70;58.36;98427.13;5051589;28;20191;-79
2022/01/19 05:43:06;;;;;;;7.73;4.97;;;;;;;-0.64;59.19;98419.66;5067041;28;20272;-81
2022/01/19 05:45:36;;;;;;;12.50;7.73;;;;;;;-0.45;58.60;98423.41;5066274;28;20224;-79
2022/01/19 05:48:10;;;;;;;15.77;7.73;;;;;;;-0.52;58.57;98422.44;5065251;28;20858;-88
2022/01/19 05:50:40;;;;;;;30.50;12.13;;;;;;;-0.45;58.73;98431.03;5067800;28;20203;-83
2022/01/19 05:53:13;;;;;;;24.83;11.67;;;;;;;-0.45;59.45;98439.53;5068010;28;20555;-85
2022/01/19 05:55:40;;;;;;;23.87;13.07;;;;;;;-0.52;58.94;98434.28;5065618;28;20250;-84
2022/01/19 05:58:07;;;;;;;24.80;13.07;;;;;;;-0.34;59.21;98440.59;5065534;28;20609;-80
2022/01/19 06:00:34;;;;;;;29.30;12.80;;;;;;;-0.31;58.51;98450.81;5065875;28;20277;-81
2022/01/19 06:03:02;;;;;;;16.03;10.53;;;;;;;-0.53;58.20;98404.59;5067431;28;20185;-84
2022/01/19 06:05:43;;;;;;;34.20;12.43;;;;;;;-0.36;58.81;98439.72;5067335;28;20316;-79
2022/01/19 06:10:55;;;;;;;24.40;11.90;;;;;;;-0.31;58.80;98455.91;5066515;28;20185;-79
2022/01/19 06:13:25;;;;;;;25.10;12.63;;;;;;;-0.27;58.30;98439.03;5065531;28;20200;-79
2022/01/19 06:15:52;;;;;;;25.97;11.13;;;;;;;-0.33;59.02;98432.13;5049284;28;20193;-79
2022/01/19 06:18:21;;;;;;;22.80;11.23;;;;;;;-0.14;58.37;98444.38;5065778;28;20204;-79
2022/01/19 06:20:50;;;;;;;19.20;10.17;;;;;;;-0.16;57.78;98435.84;5048929;28;20197;-80
2022/01/19 06:23:24;;;;;;;16.93;9.57;;;;;;;0.11;57.27;98450.75;5065160;28;20844;-79
2022/01/19 06:26:11;;;;;;;24.40;12.37;;;;;;;0.07;57.18;98456.63;5066738;28;20225;-86
2022/01/19 06:28:38;;;;;;;26.13;11.33;;;;;;;0.17;57.64;98447.44;5069529;28;20193;-91
2022/01/19 06:31:06;;;;;;;25.10;12.30;;;;;;;0.29;56.85;98457.88;5052875;28;20201;-94
2022/01/19 06:33:34;;;;;;;25.33;12.83;;;;;;;0.33;56.39;98464.75;5069267;28;20217;-86
2022/01/19 06:36:01;;;;;;;24.50;11.47;;;;;;;0.47;55.17;98469.25;5071779;28;20182;-93
2022/01/19 06:38:51;;;;;;;19.27;10.13;;;;;;;0.57;56.02;98477.88;5071449;28;20185;-88
2022/01/19 06:41:34;;;;;;;24.83;11.23;;;;;;;0.64;55.06;98482.22;5070078;28;20192;-85
2022/01/19 06:44:02;;;;;;;15.83;8.80;;;;;;;0.63;53.29;98471.19;5070001;28;20185;-96
2022/01/19 06:46:29;;;;;;;12.23;7.33;;;;;;;0.43;54.68;98482.75;5069701;28;20716;-90
2022/01/19 06:49:19;;;;;;;16.93;7.87;;;;;;;0.54;54.25;98495.66;5071511;28;20214;-87
2022/01/19 06:51:46;;;;;;;17.13;9.57;;;;;;;0.60;54.52;98476.22;5070309;28;20205;-91
2022/01/19 06:54:13;;;;;;;32.80;14.83;;;;;;;0.46;55.27;98498.06;5071814;28;20269;-87
2022/01/19 06:56:40;;;;;;;23.93;10.70;;;;;;;0.51;55.58;98480.31;5067841;28;20186;-84
2022/01/19 06:59:24;;;;;;;15.80;9.37;;;;;;;0.62;54.61;98497.50;5068765;28;20188;-79
2022/01/19 07:02:18;;;;;;;13.47;9.13;;;;;;;0.74;55.45;98501.94;5070806;28;20220;-81
2022/01/19 07:05:08;;;;;;;19.33;11.53;;;;;;;0.73;54.83;98482.38;5071119;28;20228;-79
2022/01/19 07:07:40;;;;;;;19.30;10.30;;;;;;;0.63;55.55;98467.78;5071851;28;20185;-79
2022/01/19 07:10:08;;;;;;;13.07;8.33;;;;;;;0.71;56.47;98484.03;5070985;28;20288;-79
2022/01/19 07:12:40;;;;;;;14.43;7.77;;;;;;;0.46;55.62;98479.38;5071081;28;20229;-78
2022/01/19 07:15:08;;;;;;;15.60;7.23;;;;;;;0.46;56.58;98499.75;5070779;28;20218;-83
2022/01/19 07:17:38;;;;;;;11.00;6.87;;;;;;;0.63;56.67;98490.72;5070094;28;20185;-79
2022/01/19 07:20:07;;;;;;;16.07;8.23;;;;;;;0.88;56.30;98485.19;5068593;28;20207;-80
2022/01/19 07:22:35;;;;;;;15.30;8.40;;;;;;;0.97;56.11;98487.84;5053426;28;20720;-83
2022/01/19 07:25:05;;;;;;;10.95;6.60;;;;;;;0.68;56.24;98478.91;5069338;28;20177;-79
2022/01/19 07:27:34;;;;;;;12.40;5.80;;;;;;;0.66;55.97;98489.06;5069178;28;20629;-84
2022/01/19 07:30:04;;;;;;;12.80;6.27;;;;;;;0.64;55.63;98485.63;5068480;28;20284;-87
2022/01/19 07:32:34;;;;;;;14.73;6.37;;;;;;;0.64;56.67;98492.41;5070163;28;20189;-80
2022/01/19 07:35:05;;;;;;;11.47;6.63;;;;;;;0.73;55.41;98474.72;5068615;28;20189;-83
2022/01/19 07:37:33;;;;;;;15.97;7.80;;;;;;;1.07;55.63;98492.25;5070976;28;20276;-84
2022/01/19 07:40:00;;;;;;;14.60;7.20;;;;;;;1.33;54.56;98497.72;5069924;28;20193;-87
2022/01/19 07:42:29;;;;;;;8.83;5.80;;;;;;;1.43;52.55;98490.22;5069648;28;20185;-88
2022/01/19 07:44:59;;;;;;;12.77;5.33;;;;;;;1.41;51.85;98488.47;5069843;28;20197;-82
2022/01/19 07:47:45;;;;;;;12.07;6.30;;;;;;;1.37;51.25;98485.03;5069983;28;20185;-85
2022/01/19 07:50:40;;;;;;;7.90;5.20;;;;;;;1.45;51.55;98491.09;5071363;28;20189;-88
2022/01/19 07:53:21;;;;;;;8.80;4.47;;;;;;;1.40;50.92;98489.31;5069224;28;20185;-81
2022/01/19 07:55:58;;;;;;;10.17;5.90;;;;;;;1.42;51.70;98457.03;5069387;28;20262;-80
2022/01/19 07:58:44;;;;;;;8.27;4.30;;;;;;;1.62;49.91;98476.84;5051642;28;20280;-83
2022/01/19 08:01:19;;;;;;;9.00;4.90;;;;;;;1.74;50.72;98462.50;5068175;28;20240;-83
2022/01/19 08:04:06;;;;;;;6.73;3.50;;;;;;;1.79;49.95;98484.72;5067894;28;20729;-87
2022/01/19 08:06:37;;;;;;;10.83;3.97;;;;;;;2.01;49.05;98489.22;5051268;28;20231;-83
2022/01/19 08:09:04;;;;;;;5.40;3.27;;;;;;;1.92;50.07;98491.66;5068313;28;20189;-82
2022/01/19 08:11:32;;;;;;;7.60;3.80;;;;;;;1.74;50.04;98485.47;5067293;28;20519;-80
2022/01/19 08:14:25;;;;;;;8.93;4.03;;;;;;;1.61;50.41;98474.25;5070142;28;20692;-83
2022/01/19 08:16:55;;;;;;;8.77;4.77;;;;;;;1.68;51.73;98476.06;5068932;28;20215;-83
2022/01/19 08:19:25;;;;;;;6.77;4.37;;;;;;;1.83;51.05;98475.38;5070108;28;20192;-81
2022/01/19 08:21:53;;;;;;;8.33;3.83;;;;;;;1.75;50.28;98425.94;5086411;28;20599;-86
2022/01/19 08:24:20;;;;;;;6.50;3.40;;;;;;;1.81;49.77;98474.50;5069920;28;20209;-95
2022/01/19 08:26:54;;;;;;;5.70;4.03;;;;;;;1.70;50.22;98448.00;5068541;28;20731;-86
2022/01/19 08:29:26;;;;;;;4.97;3.40;;;;;;;1.95;49.24;98461.06;5069332;28;20271;-86
2022/01/19 08:31:59;;;;;;;5.30;3.77;;;;;;;2.08;49.14;98477.38;5103223;28;20212;-83
2022/01/19 08:35:08;;;;;;;7.90;3.60;;;;;;;2.11;48.47;98460.38;5069641;28;20196;-85
2022/01/19 08:37:47;;;;;;;9.43;4.23;;;;;;;2.31;48.84;98470.78;5069184;28;20185;-86
2022/01/19 08:40:14;;;;;;;5.40;3.40;;;;;;;2.29;48.59;98467.34;5068985;28;20272;-84
2022/01/19 08:42:57;;;;;;;7.40;3.70;;;;;;;2.25;47.20;98470.72;5069630;28;20193;-82
2022/01/19 08:45:31;;;;;;;7.97;3.47;;;;;;;2.19;47.67;98460.44;5069674;28;20742;-87
2022/01/19 08:47:58;;;;;;;5.87;3.77;;;;;;;2.24;48.91;98464.78;5070432;28;20729;-82
2022/01/19 08:50:45;;;;;;;5.97;3.13;;;;;;;2.38;46.75;98467.44;5069718;28;20202;-84
2022/01/19 08:53:32;;;;;;;5.40;3.10;;;;;;;2.33;47.43;98444.38;5068296;28;20653;-90
2022/01/19 08:56:22;;;;;;;7.47;5.00;;;;;;;2.44;47.35;98455.56;5069718;28;20523;-86
2022/01/19 08:58:50;;;;;;;7.30;2.80;;;;;;;2.42;46.60;98448.72;5068009;28;20222;-83
2022/01/19 09:01:17;;;;;;;6.57;3.50;;;;;;;2.60;46.38;98461.66;5069668;28;20260;-85
2022/01/19 09:03:44;;;;;;;4.43;2.33;;;;;;;2.46;46.92;98455.59;5069671;28;20185;-80
2022/01/19 09:06:12;;;;;;;4.97;2.50;;;;;;;2.24;47.33;98441.78;5068571;28;20225;-82
2022/01/19 09:09:21;;;;;;;5.17;3.10;;;;;;;2.30;46.25;98448.63;5072743;28;20197;-91
2022/01/19 09:12:44;;;;;;;7.67;2.80;;;;;;;2.34;47.57;98441.00;5071515;28;20265;-87
2022/01/19 09:16:06;;;;;;;5.07;2.73;;;;;;;2.44;46.39;98445.34;5069646;28;20189;-89
2022/01/19 09:19:27;;;;;;;4.97;2.93;;;;;;;2.56;47.35;98441.16;5068113;28;20192;-83
2022/01/19 09:22:49;;;;;;;5.47;2.77;;;;;;;2.64;47.04;98440.38;5068630;28;20230;-87
2022/01/19 09:26:09;;;;;;;4.73;3.20;;;;;;;2.73;46.76;98425.13;5069603;28;20691;-87
2022/01/19 09:29:30;;;;;;;5.07;3.03;;;;;;;2.64;46.23;98425.03;5067706;28;20825;-81
2022/01/19 09:36:34;;;;;;;4.93;3.33;;;;;;;2.92;44.84;98421.84;5068529;28;20181;-80
2022/01/19 09:40:01;;;;;;;4.07;2.80;;;;;;;3.14;44.43;98417.69;5067035;28;20189;-83
2022/01/19 09:43:23;;;;;;;8.07;3.10;;;;;;;3.25;44.89;98406.69;5064612;28;20286;-83
2022/01/19 09:46:45;;;;;;;8.70;4.53;;;;;;;3.31;44.45;98398.16;5067694;28;20786;-82
2022/01/19 09:50:06;;;;;;;6.23;3.67;;;;;;;3.40;43.38;98405.88;5066428;28;20267;-81
2022/01/19 09:53:28;;;;;;;6.90;3.60;;;;;;;3.30;44.47;98397.31;5069230;28;20193;-80
2022/01/19 09:56:49;;;;;;;6.20;3.20;;;;;;;2.91;44.89;98404.78;5067318;28;20189;-81
2022/01/19 10:00:10;;;;;;;7.83;3.07;;;;;;;2.72;45.45;98397.81;5066309;28;20273;-79
2022/01/19 10:03:29;;;;;;;4.10;2.93;;;;;;;3.12;45.14;98404.91;5067218;28;20222;-82
2022/01/19 10:06:50;;;;;;;7.87;3.37;;;;;;;3.41;42.07;98392.25;5067947;28;20226;-81
2022/01/19 10:09:53;;;;;;;6.67;3.03;;;;;;;3.26;42.82;98387.03;5067886;28;20181;-83
2022/01/19 10:17:01;;;;;;;2.97;2.30;;;;;;;3.55;42.96;98366.66;5068592;28;20199;-80
2022/01/19 10:20:01;;;;;;;4.60;3.03;;;;;;;3.68;42.89;98368.41;5097321;28;20955;-84
2022/01/19 10:23:22;;;;;;;7.43;3.17;;;;;;;3.51;42.65;98347.03;5070399;28;20231;-86
2022/01/19 10:26:48;;;;;;;5.13;3.17;;;;;;;3.77;42.34;98355.66;5067979;28;20642;-83
2022/01/19 10:30:08;;;;;;;6.10;3.57;;;;;;;3.97;41.70;98352.25;5071087;28;20201;-84
2022/01/19 10:33:37;;;;;;;4.07;2.87;;;;;;;3.82;41.23;98359.06;5072417;28;20197;-83
2022/01/19 10:37:02;;;;;;;7.30;3.40;;;;;;;3.78;40.71;98341.97;5083197;28;20668;-83
2022/01/19 10:40:25;;;;;;;6.10;3.27;;;;;;;3.62;41.50;98310.38;5079515;28;20284;-86
2022/01/19 10:43:37;;;;;;;6.30;3.80;;;;;;;4.12;40.69;98338.59;5076008;28;20234;-89
2022/01/19 10:47:02;;;;;;;4.80;3.20;;;;;;;4.05;41.05;98330.06;5105295;28;20308;-86
2022/01/19 10:50:28;;;;;;;5.80;3.13;;;;;;;4.16;40.67;98295.88;5071625;28;20254;-82
2022/01/19 10:53:49;;;;;;;5.87;3.43;;;;;;;4.46;41.09;98289.00;5071067;28;20189;-84
2022/01/19 10:57:11;;;;;;;3.67;3.00;;;;;;;4.64;40.74;98300.91;5058117;28;20201;-85
2022/01/19 11:00:40;;;;;;;10.70;5.23;;;;;;;4.71;40.19;98298.34;5078626;28;20194;-83
2022/01/19 11:04:03;;;;;;;8.17;4.23;;;;;;;4.91;39.53;98298.28;5073322;28;20272;-84
2022/01/19 11:07:32;;;;;;;7.07;3.80;;;;;;;4.77;39.81;98289.78;5059152;28;20319;-86
2022/01/19 11:10:57;;;;;;;8.53;3.77;;;;;;;4.58;39.32;98250.50;5072451;28;20195;-84
2022/01/19 11:14:32;;;;;;;7.10;3.80;;;;;;;5.03;38.70;98302.53;5056885;28;20286;-85
2022/01/19 11:17:57;;;;;;;6.20;3.40;;;;;;;4.98;39.08;98297.41;5040356;28;20223;-83
2022/01/19 11:21:21;;;;;;;6.23;3.33;;;;;;;5.06;38.44;98293.09;5069993;28;20244;-85
2022/01/19 11:25:02;;;;;;;9.87;3.80;;;;;;;4.86;38.34;98230.72;5072618;28;20201;-86
2022/01/19 11:28:23;;;;;;;4.90;3.30;;;;;;;5.29;38.08;98275.88;5059377;28;20225;-79
2022/01/19 11:31:56;;;;;;;3.93;2.93;;;;;;;5.21;37.86;98289.63;5071230;28;20286;-79
2022/01/19 11:35:16;;;;;;;11.83;5.30;;;;;;;5.17;37.91;98283.66;5072292;28;20194;-79
2022/01/19 11:38:56;;;;;;;10.90;3.70;;;;;;;5.21;37.40;98271.63;5074117;28;20194;-86
2022/01/19 11:41:46;;;;;;;4.13;2.90;;;;;;;5.22;37.03;98261.34;5081159;28;20242;-80
2022/01/19 11:45:19;;;;;;;5.27;3.20;;;;;;;5.33;37.27;98261.31;5079125;28;20199;-80
2022/01/19 11:48:55;;;;;;;11.17;3.67;;;;;;;5.55;36.48;98252.59;5068085;28;20568;-79
2022/01/19 11:52:16;;;;;;;8.53;3.10;;;;;;;5.21;37.67;98245.97;5080722;28;20217;-80
2022/01/19 11:55:41;;;;;;;4.53;2.63;;;;;;;5.28;36.69;98242.47;5083768;28;20187;-83
2022/01/19 11:59:02;;;;;;;4.57;3.20;;;;;;;5.27;36.22;98244.22;5084407;28;20197;-90
2022/01/19 12:02:21;;;;;;;8.07;3.10;;;;;;;5.42;36.68;98250.97;5078191;28;20375;-89
2022/01/19 12:05:07;;;;;;;5.87;3.50;;;;;;;5.52;36.45;98247.50;5076697;28;20186;-82
2022/01/19 12:08:20;;;;;;;6.03;3.50;;;;;;;5.60;36.02;98232.88;5072095;28;20364;-86
2022/01/19 12:11:57;;;;;;;6.23;3.30;;;;;;;5.62;36.04;98220.88;5073450;28;20594;-85
2022/01/19 12:15:18;;;;;;;5.50;2.40;;;;;;;5.50;35.14;98223.53;5067784;28;20299;-86
2022/01/19 12:18:37;;;;;;;5.00;3.30;;;;;;;5.58;34.88;98222.63;5069779;28;20271;-93
2022/01/19 12:21:21;;;;;;;6.47;2.90;;;;;;;5.59;34.66;98214.03;5069140;28;20190;-81
2022/01/19 12:24:32;;;;;;;4.30;2.83;;;;;;;5.37;35.98;98215.06;5052981;28;20209;-90
2022/01/19 12:27:13;;;;;;;5.60;2.70;;;;;;;5.35;35.26;98214.22;5063029;28;20234;-86
2022/01/19 12:30:07;;;;;;;5.30;3.00;;;;;;;5.08;36.24;98208.38;5069124;28;20215;-83
2022/01/19 12:33:28;;;;;;;4.83;3.13;;;;;;;5.23;36.00;98209.16;5070568;28;20217;-85
2022/01/19 12:36:44;;;;;;;7.40;4.00;;;;;;;5.21;36.44;98210.88;5069174;28;20189;-80
2022/01/19 12:39:24;;;;;;;5.43;2.80;;;;;;;5.37;35.56;98206.47;5069874;28;20271;-85
2022/01/19 12:42:39;;;;;;;6.80;3.37;;;;;;;5.42;35.55;98197.03;5068756;28;20299;-81
2022/01/19 12:46:13;;;;;;;4.20;2.47;;;;;;;5.25;35.32;98198.88;5068546;28;20191;-81
2022/01/19 12:49:36;;;;;;;5.60;3.20;;;;;;;5.13;35.97;98206.66;5068913;28;20190;-87
2022/01/19 12:52:59;;;;;;;6.27;3.20;;;;;;;5.23;35.28;98198.88;5068739;28;20556;-82
2022/01/19 12:56:21;;;;;;;7.10;3.63;;;;;;;5.42;34.78;98179.06;5069079;28;20520;-86
2022/01/19 12:59:41;;;;;;;11.07;3.87;;;;;;;5.25;35.72;98181.75;5070803;28;20290;-94
2022/01/19 13:03:02;;;;;;;4.47;2.87;;;;;;;5.17;35.37;98174.94;5069729;28;20268;-81
2022/01/19 13:06:26;;;;;;;3.43;2.60;;;;;;;5.11;35.05;98183.53;5068946;28;20194;-85
2022/01/19 13:09:46;;;;;;;9.33;3.23;;;;;;;5.13;35.28;98176.66;5068502;28;20190;-86
2022/01/19 13:13:25;;;;;;;4.47;2.47;;;;;;;5.07;35.48;98166.44;5069070;28;20197;-84
2022/01/19 13:16:46;;;;;;;7.20;2.97;;;;;;;5.07;35.51;98160.47;5067360;28;20640;-81
2022/01/19 13:20:07;;;;;;;8.07;4.77;;;;;;;5.20;34.77;98156.94;5068984;28;20206;-82
2022/01/19 13:23:27;;;;;;;10.03;4.90;;;;;;;5.28;34.84;98150.03;5068302;28;20310;-80
2022/01/19 13:26:59;;;;;;;7.23;3.40;;;;;;;5.28;34.92;98143.19;5066474;28;20221;-86
2022/01/19 13:30:21;;;;;;;5.40;3.27;;;;;;;5.31;34.15;98134.63;5066672;28;20189;-81
2022/01/19 13:33:49;;;;;;;8.47;4.57;;;;;;;5.32;34.49;98131.16;5067523;28;20195;-86
2022/01/19 13:37:16;;;;;;;6.07;3.90;;;;;;;5.29;35.19;98126.94;5068291;28;20197;-80
2022/01/19 13:40:38;;;;;;;8.00;4.30;;;;;;;5.19;35.10;98114.19;5071444;28;20226;-78
2022/01/19 13:44:08;;;;;;;7.17;3.90;;;;;;;5.21;35.59;98125.28;5070552;28;20653;-79
2022/01/19 13:47:31;;;;;;;6.47;3.90;;;;;;;5.23;34.72;98108.16;5071189;28;20783;-79
2022/01/19 13:50:52;;;;;;;6.30;3.90;;;;;;;5.13;35.44;98106.53;5068750;28;20215;-78
2022/01/19 13:54:20;;;;;;;6.67;3.90;;;;;;;5.10;35.20;98091.13;5069733;28;20284;-93
2022/01/19 13:57:46;;;;;;;8.20;3.37;;;;;;;4.38;35.78;97966.78;5039724;28;20201;-93
2022/01/19 14:01:14;;;;;;;7.50;4.37;;;;;;;5.21;35.13;98081.63;5104658;28;20285;-91
2022/01/19 14:04:35;;;;;;;6.10;3.80;;;;;;;4.61;35.29;97978.59;5073242;28;20187;-90
2022/01/19 14:08:06;;;;;;;19.20;8.80;;;;;;;5.00;35.89;98049.28;5058385;28;20276;-91
2022/01/19 14:11:32;;;;;;;7.73;3.80;;;;;;;4.93;34.08;98019.38;5064194;28;20187;-89
2022/01/19 14:14:43;;;;;;;13.53;7.13;;;;;;;5.51;35.18;98096.78;5057563;28;20289;-83
2022/01/19 14:17:23;;;;;;;8.33;4.90;;;;;;;5.41;33.90;98095.16;5075273;28;20190;-81
2022/01/19 14:20:44;;;;;;;4.83;4.00;;;;;;;5.40;34.02;98094.28;5073144;28;20190;-85
2022/01/19 14:24:06;;;;;;;10.07;5.40;;;;;;;5.40;35.52;98101.16;5077123;28;20249;-86
2022/01/19 14:27:31;;;;;;;7.50;3.20;;;;;;;5.45;35.22;98101.97;5075829;28;20322;-89
2022/01/19 14:30:59;;;;;;;7.50;4.20;;;;;;;5.32;34.64;98093.50;5076315;28;20720;-93
2022/01/19 14:34:27;;;;;;;6.77;3.47;;;;;;;5.01;35.36;98093.78;5077504;28;20243;-89
2022/01/19 14:37:51;;;;;;;16.63;8.83;;;;;;;5.00;35.79;98098.06;5079668;28;20190;-88
2022/01/19 14:40:59;;;;;;;10.93;6.80;;;;;;;5.07;34.74;98098.88;5073996;28;20198;-86
2022/01/19 14:44:39;;;;;;;9.83;5.63;;;;;;;4.89;35.46;98085.28;5073989;28;20267;-87
2022/01/19 14:48:07;;;;;;;12.17;6.03;;;;;;;4.90;36.72;98091.28;5095999;28;20657;-80
2022/01/19 14:51:17;;;;;;;13.67;6.90;;;;;;;4.91;37.95;98098.97;5073959;28;20193;-90
2022/01/19 14:54:05;;;;;;;14.43;7.43;;;;;;;4.83;37.45;98080.19;5094459;28;20621;-84